MST,Max TemperatureF,Mean TemperatureF,Min TemperatureF,Max Dew PointF,MeanDew PointF,Min DewpointF,Max Humidity, Mean Humidity, Min Humidity, Max Sea Level PressureIn, Mean Sea Level PressureIn, Min Sea Level PressureIn, Max VisibilityMiles, Mean VisibilityMiles, Min VisibilityMiles, Max Wind SpeedMPH, Mean Wind SpeedMPH, Max Gust SpeedMPH,PrecipitationIn, CloudCover, Events, WindDirDegrees
2013-12-1,71,61,51,47,45,41,83,60,37,30.18,30.12,30.07,10,10,10,9,3,16,0.00,1,,184
2013-12-2,72,58,44,45,40,35,86,57,27,30.10,30.00,29.89,10,10,8,12,5,17,0.00,0,,143
2013-12-3,75,60,45,41,33,22,61,38,15,29.89,29.77,29.69,10,10,10,17,6,22,0.00,0,,178
2013-12-4,68,57,46,46,41,31,74,50,26,29.94,29.79,29.68,10,10,4,24,12,31,0.04,3,Rain,263
2013-12-5,50,44,37,45,38,25,92,69,45,30.08,29.94,29.85,10,8,3,14,5,17,0.39,7,Rain,318
2013-12-6,53,43,33,30,26,20,89,59,28,30.17,30.11,30.06,10,10,10,9,3,12,0.00,0,,123
2013-12-7,59,46,33,29,26,21,82,53,24,30.07,30.03,29.95,10,10,10,12,5,15,0.00,0,,157
2013-12-8,57,51,44,40,36,31,70,59,47,30.09,30.03,29.98,10,10,10,10,4,15,0.00,5,,242
2013-12-9,52,44,36,28,21,14,62,42,22,30.28,30.19,30.06,10,10,10,10,3,13,0.00,1,,301
2013-12-10,62,47,31,27,21,13,78,48,17,30.26,30.16,30.06,10,10,10,20,6,23,0.00,0,,77
2013-12-11,74,56,38,39,31,26,70,48,26,30.17,30.11,30.05,10,10,10,14,6,16,0.00,0,,138
2013-12-12,71,59,47,40,31,25,56,41,25,30.14,30.07,29.98,10,10,10,28,11,33,0.00,1,,154
2013-12-13,64,52,39,34,31,27,76,51,25,30.16,30.11,30.05,10,10,10,9,4,13,0.00,0,,182
2013-12-14,65,50,35,32,28,22,82,51,19,30.27,30.22,30.15,10,10,10,12,4,16,0.00,0,,173
2013-12-15,68,53,37,30,25,19,70,43,16,30.26,30.21,30.14,10,10,10,20,6,27,0.00,0,,109
2013-12-16,78,58,38,33,25,12,70,39,8,30.19,30.14,30.07,10,10,10,18,6,22,0.00,0,,165
2013-12-17,83,63,43,31,24,16,49,29,8,30.20,30.11,30.02,10,10,10,13,5,15,0.00,0,,120
2013-12-18,79,65,50,28,25,20,38,25,12,30.02,29.92,29.81,10,10,10,15,6,17,0.00,0,,139
2013-12-19,70,59,47,42,26,20,42,29,15,29.81,29.73,29.65,10,10,10,24,8,29,0.00,0,,189
2013-12-20,55,50,45,43,39,37,92,73,54,29.84,29.71,29.60,10,9,3,23,8,29,0.40,6,Rain,205
2013-12-21,54,49,44,41,38,35,82,66,50,30.04,29.88,29.81,10,10,10,16,6,30,T,6,Rain,233
2013-12-22,59,49,38,40,35,30,92,64,35,30.26,30.17,30.05,10,10,10,8,4,12,0.00,0,,159
2013-12-23,65,49,33,35,30,23,89,55,20,30.33,30.26,30.20,10,10,10,21,6,25,0.00,0,,105
2013-12-24,70,55,40,34,26,20,65,41,17,30.19,30.14,30.07,10,10,10,24,8,30,0.00,0,,125
2013-12-25,69,53,37,34,29,24,76,49,21,30.24,30.17,30.10,10,10,10,20,7,22,0.00,0,,97
2013-12-26,66,56,46,25,21,19,36,27,18,30.20,30.14,30.07,10,10,10,32,14,38,0.00,0,,118
2013-12-27,68,57,45,22,19,14,34,23,12,30.19,30.12,30.05,10,10,10,22,11,27,0.00,0,,112
2013-12-28,66,53,39,32,25,20,50,34,18,30.09,30.00,29.92,10,10,10,24,6,29,0.00,0,,138
2013-12-29,65,52,39,33,29,24,70,46,21,30.12,29.99,29.92,10,10,10,14,5,17,0.00,0,,257
2013-12-30,67,52,36,30,27,19,70,43,16,30.25,30.19,30.12,10,10,10,13,5,15,0.00,0,,128
2013-12-31,72,55,38,28,24,16,64,38,12,30.21,30.13,30.04,10,10,10,13,6,18,0.00,0,,159